Time;durP1;ratioP1;P1;durP2;ratioP2;P2;SDS_P1;SDS_P2;PMS_P1;PMS_P2;Temp;Humidity;BMP_temperature;BMP_pressure;BME280_temperature;BME280_humidity;BME280_pressure;Samples;Min_cycle;Max_cycle;Signal;HPM_P1;HPM_P2
2021/07/19 00:00:14;;;;;;;16.57;14.78;;;;;;;24.88;71.17;99714.39;1704527;82;21021;-79
2021/07/19 00:02:43;;;;;;;16.77;13.88;;;;;;;24.86;71.16;99717.44;1704322;83;21007;-79
2021/07/19 00:05:11;;;;;;;14.23;12.58;;;;;;;24.89;71.17;99721.48;1700812;84;20976;-79
2021/07/19 00:07:40;;;;;;;14.05;11.70;;;;;;;24.85;71.38;99716.38;1701294;83;21583;-78
2021/07/19 00:10:11;;;;;;;18.23;12.30;;;;;;;24.85;71.45;99713.64;1702831;83;21007;-79
2021/07/19 00:12:38;;;;;;;13.28;11.97;;;;;;;24.98;71.17;99713.44;1704748;83;21042;-77
2021/07/19 00:15:10;;;;;;;15.45;13.95;;;;;;;25.05;70.96;99713.29;1704961;83;21105;-80
2021/07/19 00:17:40;;;;;;;17.32;14.65;;;;;;;24.98;71.13;99717.52;1690299;83;21066;-79
2021/07/19 00:20:09;;;;;;;17.73;13.58;;;;;;;24.87;71.27;99711.43;1691135;83;21075;-79
2021/07/19 00:22:36;;;;;;;15.10;13.13;;;;;;;24.80;70.99;99711.80;1703704;83;21066;-80
2021/07/19 00:25:06;;;;;;;14.07;12.63;;;;;;;24.80;71.23;99715.09;1695569;83;21077;-78
2021/07/19 00:27:32;;;;;;;16.20;14.55;;;;;;;24.76;71.45;99710.78;1704170;83;21053;-80
2021/07/19 00:29:58;;;;;;;20.40;13.85;;;;;;;24.75;71.63;99704.27;1697037;83;21642;-79
2021/07/19 00:32:26;;;;;;;16.57;14.93;;;;;;;24.73;71.58;99701.03;1696940;83;21018;-80
2021/07/19 00:34:53;;;;;;;17.85;13.48;;;;;;;24.80;71.88;99704.19;1696936;84;21002;-79
2021/07/19 00:37:20;;;;;;;18.17;14.20;;;;;;;24.80;71.91;99711.00;1697151;83;21054;-78
2021/07/19 00:39:46;;;;;;;22.25;15.03;;;;;;;24.77;71.59;99697.95;1696038;83;21553;-78
2021/07/19 00:42:12;;;;;;;14.00;12.47;;;;;;;24.79;70.82;99703.39;1689654;83;21233;-78
2021/07/19 00:44:38;;;;;;;15.48;13.08;;;;;;;24.82;71.56;99700.05;1704146;83;21317;-79
2021/07/19 00:47:06;;;;;;;15.10;13.50;;;;;;;24.82;71.52;99700.61;1684749;84;21034;-78
2021/07/19 00:49:34;;;;;;;17.05;14.18;;;;;;;24.77;71.70;99698.79;1689747;83;20998;-79
2021/07/19 00:52:03;;;;;;;20.08;13.95;;;;;;;24.75;71.76;99695.55;1692555;83;21110;-78
2021/07/19 00:54:35;;;;;;;19.57;17.60;;;;;;;24.67;71.76;99690.20;1685973;83;20996;-79
2021/07/19 00:57:05;;;;;;;19.57;17.57;;;;;;;24.62;71.38;99688.95;1690868;82;21085;-78
2021/07/19 01:01:32;;;;;;;18.77;17.07;;;;;;;24.72;70.64;99693.98;1780649;78;22987;-80
2021/07/19 01:04:01;;;;;;;19.10;17.10;;;;;;;24.75;70.08;99697.45;1692188;81;21045;-80
2021/07/19 01:06:30;;;;;;;18.73;16.45;;;;;;;24.79;69.84;99693.84;1729861;81;21022;-78
2021/07/19 01:08:59;;;;;;;18.45;16.55;;;;;;;24.83;70.25;99693.50;1733951;81;20998;-79
2021/07/19 01:11:26;;;;;;;19.92;15.75;;;;;;;24.86;70.02;99698.36;1720254;81;21547;-79
2021/07/19 01:13:53;;;;;;;19.75;14.70;;;;;;;24.88;70.72;99693.95;1687253;83;21033;-80
2021/07/19 01:16:21;;;;;;;17.55;15.78;;;;;;;24.83;70.56;99683.95;1689633;83;21041;-78
2021/07/19 01:18:49;;;;;;;18.87;14.13;;;;;;;24.82;70.96;99676.08;1693114;83;21041;-79
2021/07/19 01:21:47;;;;;;;17.75;15.05;;;;;;;24.83;71.12;99677.14;1688266;83;21633;-79
2021/07/19 01:24:52;;;;;;;16.05;14.45;;;;;;;24.82;71.23;99676.08;1705019;82;21072;-79
2021/07/19 01:27:57;;;;;;;21.80;14.55;;;;;;;24.75;71.38;99676.48;1717550;82;21057;-79
2021/07/19 01:30:27;;;;;;;16.35;14.70;;;;;;;24.66;72.01;99675.55;1658926;84;21447;-79
2021/07/19 01:32:59;;;;;;;16.15;14.65;;;;;;;24.73;72.39;99675.14;1647775;85;21191;-78
2021/07/19 01:35:33;;;;;;;16.17;14.47;;;;;;;24.89;71.79;99678.42;1679036;83;21117;-79
2021/07/19 01:38:02;;;;;;;16.17;14.47;;;;;;;24.93;71.16;99675.35;1679101;83;21062;-79
2021/07/19 01:40:40;;;;;;;18.65;15.25;;;;;;;24.83;71.21;99679.07;1679069;84;21161;-79
2021/07/19 01:43:10;;;;;;;15.83;14.40;;;;;;;24.68;71.40;99681.50;1649034;85;21049;-79
2021/07/19 01:45:38;;;;;;;17.67;15.28;;;;;;;24.57;71.93;99682.22;1683022;83;21069;-79
2021/07/19 01:48:09;;;;;;;15.98;14.33;;;;;;;24.51;72.29;99682.58;1685116;83;21142;-78
2021/07/19 01:50:37;;;;;;;14.30;12.98;;;;;;;24.44;72.76;99686.47;1687080;84;21670;-78
2021/07/19 01:53:06;;;;;;;15.63;14.13;;;;;;;24.45;72.97;99685.38;1681506;83;21043;-79
2021/07/19 01:55:34;;;;;;;15.43;13.88;;;;;;;24.56;72.87;99681.14;1676043;83;21058;-80
2021/07/19 01:58:04;;;;;;;15.45;13.88;;;;;;;24.66;72.52;99683.72;1682446;84;20982;-79
2021/07/19 02:00:31;;;;;;;16.67;13.55;;;;;;;24.72;72.13;99692.05;1691431;84;21050;-79
2021/07/19 02:02:59;;;;;;;15.78;14.03;;;;;;;24.66;72.02;99692.70;1716027;82;21006;-80
2021/07/19 02:05:27;;;;;;;15.05;13.38;;;;;;;24.53;72.25;99695.38;1703300;82;21042;-80
2021/07/19 02:08:00;;;;;;;14.80;13.38;;;;;;;24.39;73.09;99692.02;1703049;82;21595;-80
2021/07/19 02:10:29;;;;;;;17.27;14.93;;;;;;;24.38;73.47;99699.92;1701023;82;21109;-79
2021/07/19 02:13:08;;;;;;;16.45;13.40;;;;;;;24.46;73.19;99703.32;1704343;83;21064;-79
2021/07/19 02:15:39;;;;;;;17.57;15.85;;;;;;;24.43;73.08;99701.21;1675419;84;21154;-79
2021/07/19 02:18:07;;;;;;;16.82;14.68;;;;;;;24.27;73.36;99706.63;1667192;84;21049;-79
2021/07/19 02:20:34;;;;;;;15.83;14.23;;;;;;;24.21;73.62;99705.09;1697244;82;21576;-81
2021/07/19 02:23:07;;;;;;;17.12;14.73;;;;;;;24.21;73.75;99703.73;1702903;82;21014;-79
2021/07/19 02:25:55;;;;;;;17.32;14.38;;;;;;;24.21;74.03;99703.73;1702800;82;21046;-79
2021/07/19 02:28:23;;;;;;;15.80;14.40;;;;;;;24.22;74.24;99702.61;1695405;82;21105;-80
2021/07/19 02:30:50;;;;;;;16.48;13.58;;;;;;;24.19;74.49;99704.02;1704103;82;21079;-80
2021/07/19 02:33:20;;;;;;;16.67;14.93;;;;;;;24.21;74.31;99709.17;1707366;82;21515;-79
2021/07/19 02:35:49;;;;;;;18.77;16.75;;;;;;;24.18;74.27;99706.47;1709316;82;21004;-79
2021/07/19 02:38:16;;;;;;;18.57;15.50;;;;;;;24.20;73.89;99706.18;1688642;82;21017;-79
2021/07/19 02:40:51;;;;;;;19.23;15.40;;;;;;;24.24;73.86;99706.67;1690193;82;20996;-79
2021/07/19 02:43:22;;;;;;;16.30;13.78;;;;;;;24.32;74.18;99702.47;1708970;83;21053;-78
2021/07/19 02:45:53;;;;;;;14.98;13.70;;;;;;;24.47;73.51;99711.77;1707520;82;21026;-78
2021/07/19 02:48:21;;;;;;;15.83;14.15;;;;;;;24.54;73.16;99708.68;1702261;83;21090;-79
2021/07/19 02:50:53;;;;;;;16.52;14.90;;;;;;;24.54;73.28;99713.33;1712567;82;21557;-77
2021/07/19 02:53:22;;;;;;;14.73;13.43;;;;;;;24.58;73.27;99712.98;1710336;82;21007;-79
2021/07/19 02:55:55;;;;;;;20.82;13.83;;;;;;;24.62;72.87;99717.56;1699240;82;21094;-79
2021/07/19 02:58:23;;;;;;;15.75;13.88;;;;;;;24.67;71.62;99721.55;1673247;84;21026;-79
2021/07/19 03:00:54;;;;;;;16.00;14.53;;;;;;;24.80;70.66;99731.44;1698029;84;21566;-79
2021/07/19 03:03:28;;;;;;;16.35;14.75;;;;;;;24.95;69.98;99735.27;1664588;84;21074;-79
2021/07/19 03:06:04;;;;;;;15.98;14.58;;;;;;;25.08;70.11;99740.50;1696080;84;21409;-79
2021/07/19 03:08:36;;;;;;;18.92;15.38;;;;;;;25.23;70.11;99741.62;1693867;83;21113;-78
2021/07/19 03:11:28;;;;;;;17.20;15.15;;;;;;;25.39;70.04;99731.78;1702953;83;21083;-79
2021/07/19 03:13:59;;;;;;;17.50;14.50;;;;;;;25.55;69.73;99734.47;1707597;84;21090;-78
2021/07/19 03:16:28;;;;;;;16.95;14.78;;;;;;;25.74;69.50;99741.19;1704706;84;21051;-78
2021/07/19 03:19:01;;;;;;;18.15;16.27;;;;;;;25.95;67.16;99748.42;1687754;83;21073;-78
2021/07/19 03:21:30;;;;;;;18.67;16.82;;;;;;;26.01;66.28;99748.59;1685445;83;21010;-78
2021/07/19 03:24:04;;;;;;;17.62;15.85;;;;;;;26.13;67.57;99749.42;1678555;84;20978;-78
2021/07/19 03:26:31;;;;;;;16.85;15.32;;;;;;;26.30;67.27;99742.52;1637243;86;21093;-80
2021/07/19 03:29:01;;;;;;;18.73;16.82;;;;;;;26.55;66.29;99750.67;1636299;86;21622;-79
2021/07/19 03:31:32;;;;;;;18.00;16.20;;;;;;;26.77;66.08;99756.17;1641007;86;21028;-78
2021/07/19 03:34:01;;;;;;;21.42;17.42;;;;;;;26.95;65.45;99764.48;1636885;86;21100;-79
2021/07/19 03:36:34;;;;;;;19.67;16.07;;;;;;;27.12;65.00;99768.69;1607075;88;21039;-78
2021/07/19 03:39:07;;;;;;;18.12;16.15;;;;;;;27.26;64.47;99761.81;1631830;86;21092;-79
2021/07/19 03:41:53;;;;;;;18.40;15.58;;;;;;;27.35;64.11;99764.58;1632027;86;21131;-79
2021/07/19 03:44:21;;;;;;;19.65;16.27;;;;;;;27.43;63.72;99768.50;1644547;85;21065;-79
2021/07/19 03:46:49;;;;;;;15.95;14.25;;;;;;;27.48;63.46;99769.17;1629165;85;21159;-79
2021/07/19 03:49:19;;;;;;;17.20;14.60;;;;;;;27.60;62.94;99772.67;1628260;86;21153;-80
2021/07/19 03:51:50;;;;;;;18.55;14.98;;;;;;;27.73;62.48;99768.21;1586658;89;21559;-78
2021/07/19 03:54:16;;;;;;;16.20;13.98;;;;;;;27.82;62.38;99770.42;1634750;86;21031;-79
2021/07/19 03:56:44;;;;;;;16.25;14.55;;;;;;;27.96;62.01;99763.47;1632427;86;21143;-79
2021/07/19 03:59:15;;;;;;;21.73;14.63;;;;;;;28.19;61.05;99762.77;1581079;89;21133;-78
2021/07/19 04:01:42;;;;;;;19.40;15.23;;;;;;;28.45;60.66;99762.00;1616485;86;21053;-78
2021/07/19 04:04:16;;;;;;;18.67;14.73;;;;;;;28.61;59.66;99759.59;1607810;87;21021;-78
2021/07/19 04:06:48;;;;;;;17.27;13.40;;;;;;;28.73;59.06;99757.02;1623998;87;21056;-78
2021/07/19 04:09:16;;;;;;;22.48;13.45;;;;;;;28.73;58.61;99753.70;1623503;87;21575;-78
2021/07/19 04:11:44;;;;;;;18.37;12.15;;;;;;;28.81;58.39;99747.97;1620692;87;21350;-77
2021/07/19 04:14:14;;;;;;;17.87;12.68;;;;;;;28.92;57.77;99747.06;1620165;87;20984;-79
2021/07/19 04:16:41;;;;;;;14.18;12.63;;;;;;;29.00;56.63;99753.66;1620783;87;21072;-78
2021/07/19 04:19:13;;;;;;;15.30;12.60;;;;;;;29.00;56.56;99746.80;1580593;88;21469;-78
2021/07/19 04:21:40;;;;;;;13.62;12.25;;;;;;;28.96;56.50;99756.25;1619614;87;21037;-76
2021/07/19 04:24:08;;;;;;;15.10;12.28;;;;;;;28.96;56.29;99754.88;1602186;87;21557;-76
2021/07/19 04:26:37;;;;;;;15.50;12.58;;;;;;;29.09;56.15;99757.99;1604571;88;21123;-76
2021/07/19 04:29:05;;;;;;;16.30;13.38;;;;;;;29.18;55.57;99750.33;1582367;89;21114;-76
2021/07/19 04:31:34;;;;;;;15.50;12.43;;;;;;;29.23;55.10;99755.07;1625662;85;21167;-77
2021/07/19 04:34:01;;;;;;;18.07;13.03;;;;;;;29.28;55.24;99754.10;1623711;88;21494;-77
2021/07/19 04:36:32;;;;;;;15.60;12.85;;;;;;;29.22;55.05;99751.30;1616808;88;21006;-77
2021/07/19 04:39:05;;;;;;;16.87;13.55;;;;;;;29.12;55.16;99749.66;1620044;87;21102;-88
2021/07/19 04:41:35;;;;;;;17.35;12.50;;;;;;;29.11;55.13;99750.81;1621780;87;21074;-76
2021/07/19 04:44:01;;;;;;;16.90;13.18;;;;;;;29.22;55.17;99750.73;1618427;87;21102;-75
2021/07/19 04:46:29;;;;;;;14.35;12.98;;;;;;;29.47;54.34;99751.76;1602603;88;21085;-76
2021/07/19 04:48:55;;;;;;;14.55;11.83;;;;;;;29.63;53.35;99753.40;1587845;89;21580;-78
2021/07/19 04:51:21;;;;;;;14.18;12.50;;;;;;;29.70;53.17;99749.57;1624633;88;21018;-76
2021/07/19 04:53:49;;;;;;;18.52;12.75;;;;;;;29.70;53.12;99750.11;1620206;87;20999;-77
2021/07/19 04:56:18;;;;;;;15.08;12.18;;;;;;;29.70;53.19;99746.00;1617395;87;21145;-76
2021/07/19 04:58:49;;;;;;;14.58;13.15;;;;;;;29.86;53.08;99743.53;1617694;88;21030;-77
2021/07/19 05:01:18;;;;;;;14.33;12.82;;;;;;;30.08;52.36;99739.65;1611054;87;21212;-75
2021/07/19 05:03:49;;;;;;;13.18;11.93;;;;;;;30.25;52.13;99737.34;1576772;89;21123;-76
2021/07/19 05:06:17;;;;;;;16.77;11.65;;;;;;;30.44;51.52;99734.97;1617435;87;21097;-76
2021/07/19 05:08:48;;;;;;;15.08;12.60;;;;;;;30.52;50.99;99740.74;1619991;87;21055;-76
2021/07/19 05:11:17;;;;;;;16.07;13.13;;;;;;;30.41;51.19;99735.64;1622707;87;21058;-77
2021/07/19 05:13:45;;;;;;;19.95;12.25;;;;;;;29.86;51.41;99644.06;1631617;86;21038;-81
2021/07/19 05:16:12;;;;;;;13.15;11.60;;;;;;;30.59;51.21;99734.10;1638203;86;21051;-76
2021/07/19 05:18:41;;;;;;;12.78;11.43;;;;;;;30.70;50.69;99733.91;1645661;86;21098;-77
2021/07/19 05:21:08;;;;;;;18.00;11.55;;;;;;;30.73;50.71;99736.00;1633497;86;21315;-76
2021/07/19 05:23:36;;;;;;;14.00;11.65;;;;;;;30.94;50.09;99729.67;1633243;86;21129;-75
2021/07/19 05:26:02;;;;;;;14.80;13.25;;;;;;;31.23;49.51;99732.81;1629529;87;21081;-76
2021/07/19 05:28:28;;;;;;;17.23;12.82;;;;;;;31.34;49.67;99734.55;1625418;87;21718;-78
2021/07/19 05:30:55;;;;;;;14.15;12.35;;;;;;;31.32;49.09;99733.52;1628972;87;21328;-78
2021/07/19 05:33:25;;;;;;;14.53;12.25;;;;;;;31.31;49.30;99735.25;1630690;86;21555;-79
2021/07/19 05:35:53;;;;;;;17.00;13.20;;;;;;;31.33;49.47;99735.72;1642858;85;21078;-77
2021/07/19 05:38:20;;;;;;;14.47;11.70;;;;;;;31.61;48.92;99737.25;1644341;85;21177;-77
2021/07/19 05:40:46;;;;;;;13.13;11.63;;;;;;;31.93;47.88;99742.94;1654671;85;21060;-77
2021/07/19 05:43:13;;;;;;;12.18;10.95;;;;;;;32.07;48.03;99740.66;1652962;86;21175;-79
2021/07/19 05:45:39;;;;;;;12.90;11.70;;;;;;;32.31;47.14;99737.03;1657468;85;21021;-76
2021/07/19 05:48:07;;;;;;;14.90;12.35;;;;;;;32.43;46.61;99734.02;1642404;85;21107;-79
2021/07/19 05:50:34;;;;;;;11.97;10.78;;;;;;;32.50;47.00;99732.84;1656242;85;21528;-76
2021/07/19 05:53:00;;;;;;;12.75;10.75;;;;;;;32.62;45.59;99738.32;1665058;85;21596;-78
2021/07/19 05:55:27;;;;;;;13.55;10.93;;;;;;;32.68;45.39;99727.28;1664271;85;21026;-78
2021/07/19 05:58:01;;;;;;;12.35;10.68;;;;;;;32.81;45.83;99725.82;1657505;85;21047;-79
2021/07/19 06:00:28;;;;;;;12.47;11.08;;;;;;;33.01;44.72;99717.09;1663307;85;21046;-79
2021/07/19 06:02:54;;;;;;;11.40;10.30;;;;;;;33.16;44.56;99717.11;1664243;85;21015;-78
2021/07/19 06:05:21;;;;;;;12.82;10.63;;;;;;;33.05;44.48;99711.87;1650556;85;21079;-78
2021/07/19 06:07:47;;;;;;;12.25;9.70;;;;;;;32.96;44.57;99724.48;1658978;85;21429;-79
2021/07/19 06:10:14;;;;;;;10.70;9.58;;;;;;;32.96;43.95;99725.86;1665727;85;21000;-77
2021/07/19 06:12:42;;;;;;;13.60;10.60;;;;;;;33.06;43.86;99729.23;1668472;85;21038;-79
2021/07/19 06:15:12;;;;;;;18.35;10.68;;;;;;;33.12;43.29;99725.09;1658953;85;21149;-79
2021/07/19 06:17:39;;;;;;;11.28;9.93;;;;;;;33.19;42.81;99725.84;1664662;85;21050;-78
2021/07/19 06:20:17;;;;;;;14.38;10.20;;;;;;;33.31;42.82;99729.32;1651873;85;21090;-78
2021/07/19 06:22:47;;;;;;;11.93;10.63;;;;;;;33.51;41.95;99734.36;1652123;85;21053;-78
2021/07/19 06:25:15;;;;;;;12.15;9.38;;;;;;;33.60;42.16;99730.59;1664680;85;21014;-79
2021/07/19 06:27:43;;;;;;;15.95;9.60;;;;;;;33.69;41.88;99734.80;1661655;85;21241;-79
2021/07/19 06:30:12;;;;;;;11.83;9.75;;;;;;;33.89;41.04;99738.41;1655537;85;21066;-78
2021/07/19 06:32:39;;;;;;;17.12;10.58;;;;;;;34.03;40.81;99734.36;1662990;85;20979;-78
2021/07/19 06:35:10;;;;;;;10.78;9.40;;;;;;;34.04;40.69;99734.56;1664867;85;21600;-77
2021/07/19 06:37:38;;;;;;;17.62;9.73;;;;;;;34.08;40.90;99735.47;1659929;85;20975;-79
2021/07/19 06:40:08;;;;;;;12.10;9.40;;;;;;;34.24;40.73;99739.58;1665037;85;21050;-79
2021/07/19 06:42:35;;;;;;;15.18;9.90;;;;;;;34.45;40.08;99732.30;1664584;85;21547;-78
2021/07/19 06:45:01;;;;;;;10.65;9.55;;;;;;;34.58;39.79;99739.87;1655049;85;21069;-76
2021/07/19 06:47:28;;;;;;;13.50;9.20;;;;;;;34.45;39.14;99736.45;1654509;85;21058;-78
2021/07/19 06:49:57;;;;;;;13.10;10.18;;;;;;;34.20;40.25;99738.70;1650966;85;21069;-77
2021/07/19 06:52:25;;;;;;;15.60;9.73;;;;;;;34.25;40.30;99735.07;1657957;86;21139;-78
2021/07/19 06:54:52;;;;;;;10.70;9.30;;;;;;;34.38;40.00;99743.21;1664730;85;20995;-77
2021/07/19 06:57:20;;;;;;;10.68;9.68;;;;;;;34.43;39.55;99739.58;1656447;85;21041;-78
2021/07/19 06:59:47;;;;;;;13.50;9.65;;;;;;;34.39;40.03;99737.32;1664910;85;21127;-77
2021/07/19 07:02:14;;;;;;;13.25;10.08;;;;;;;34.35;39.70;99739.81;1651129;85;21054;-77
2021/07/19 07:04:41;;;;;;;10.78;9.50;;;;;;;34.32;40.03;99737.99;1658109;85;21050;-78
2021/07/19 07:07:08;;;;;;;17.98;9.85;;;;;;;34.36;39.58;99738.62;1640793;86;21034;-78
2021/07/19 07:09:35;;;;;;;12.90;9.90;;;;;;;34.41;39.47;99739.14;1633002;87;21134;-77
2021/07/19 07:12:02;;;;;;;12.35;10.80;;;;;;;34.43;39.67;99738.78;1640049;86;21090;-78
2021/07/19 07:14:28;;;;;;;18.20;10.80;;;;;;;34.51;39.89;99734.42;1638826;86;21068;-78
2021/07/19 07:16:56;;;;;;;15.68;10.05;;;;;;;34.65;39.34;99731.71;1644095;86;21567;-79
2021/07/19 07:19:24;;;;;;;15.80;10.10;;;;;;;34.74;38.86;99734.29;1645138;86;21120;-79
2021/07/19 07:21:50;;;;;;;13.83;9.93;;;;;;;34.74;38.74;99725.98;1641342;86;21033;-79
2021/07/19 07:24:16;;;;;;;13.40;9.33;;;;;;;34.67;38.71;99717.74;1641572;86;21503;-79
2021/07/19 07:26:42;;;;;;;12.23;10.25;;;;;;;34.62;38.72;99716.65;1664022;85;21021;-80
2021/07/19 07:29:09;;;;;;;15.70;10.88;;;;;;;34.68;38.82;99711.05;1662136;85;21191;-79
2021/07/19 07:31:35;;;;;;;13.13;10.25;;;;;;;34.78;38.49;99708.86;1664058;85;21020;-79
2021/07/19 07:34:03;;;;;;;10.50;9.70;;;;;;;34.76;38.37;99705.66;1659972;85;21046;-77
2021/07/19 07:36:30;;;;;;;10.80;9.70;;;;;;;34.69;38.57;99705.72;1664458;85;21073;-76
2021/07/19 07:38:56;;;;;;;14.18;10.03;;;;;;;34.61;38.77;99704.56;1664243;85;21089;-79
2021/07/19 07:41:23;;;;;;;14.15;10.20;;;;;;;34.44;39.04;99711.34;1645541;86;21538;-77
2021/07/19 07:43:50;;;;;;;17.62;9.85;;;;;;;34.30;38.82;99708.52;1643704;86;21615;-77
2021/07/19 07:46:17;;;;;;;16.45;9.60;;;;;;;34.14;39.02;99705.77;1670246;85;21022;-78
2021/07/19 07:48:43;;;;;;;16.90;10.28;;;;;;;33.96;39.45;99696.87;1658491;85;21041;-77
2021/07/19 07:51:10;;;;;;;10.60;9.53;;;;;;;33.85;39.97;99696.08;1655704;85;21081;-77
2021/07/19 07:53:37;;;;;;;14.73;10.50;;;;;;;33.76;39.83;99695.48;1659277;85;20978;-77
2021/07/19 07:56:04;;;;;;;16.70;10.08;;;;;;;33.62;40.01;99686.83;1661129;85;21094;-79
2021/07/19 07:58:30;;;;;;;10.95;9.85;;;;;;;33.42;40.30;99683.19;1639294;85;21086;-78
2021/07/19 08:00:57;;;;;;;11.97;9.55;;;;;;;33.22;40.98;99674.85;1655380;86;21067;-80
2021/07/19 08:03:23;;;;;;;12.43;10.60;;;;;;;33.11;41.16;99671.81;1621952;86;21018;-79
2021/07/19 08:05:49;;;;;;;14.60;10.18;;;;;;;33.10;41.14;99662.50;1638368;86;20982;-79
2021/07/19 08:08:15;;;;;;;13.85;10.08;;;;;;;33.11;41.13;99658.02;1637554;86;21686;-79
2021/07/19 08:10:41;;;;;;;14.00;10.45;;;;;;;32.99;40.85;99651.19;1620626;87;21058;-79
2021/07/19 08:13:08;;;;;;;12.50;9.50;;;;;;;32.84;41.19;99650.61;1619881;87;21046;-78
2021/07/19 08:15:37;;;;;;;12.25;9.85;;;;;;;32.78;41.12;99632.94;1610506;88;21038;-78
2021/07/19 08:18:03;;;;;;;12.43;9.28;;;;;;;32.72;41.31;99623.33;1595949;87;21362;-79
2021/07/19 08:20:30;;;;;;;14.15;10.38;;;;;;;32.71;41.53;99613.43;1621329;87;21062;-80
2021/07/19 08:22:56;;;;;;;14.00;9.23;;;;;;;32.72;41.59;99619.19;1638083;86;21088;-78
2021/07/19 08:25:24;;;;;;;12.90;10.25;;;;;;;32.73;41.71;99630.43;1610368;87;21575;-78
2021/07/19 08:27:50;;;;;;;12.63;9.28;;;;;;;32.68;41.81;99632.09;1612059;88;21097;-77
2021/07/19 08:30:17;;;;;;;15.65;9.88;;;;;;;32.55;41.75;99626.37;1626513;86;21755;-77
2021/07/19 08:32:45;;;;;;;11.20;8.90;;;;;;;32.42;41.69;99610.49;1619951;88;21046;-79
2021/07/19 08:35:12;;;;;;;12.05;7.92;;;;;;;32.27;41.82;99596.08;1620033;87;21077;-77
2021/07/19 08:37:44;;;;;;;13.55;10.03;;;;;;;32.06;42.57;99611.45;1617509;87;21099;-81
2021/07/19 08:40:14;;;;;;;12.60;8.80;;;;;;;31.74;43.22;99638.84;1611197;87;21062;-81
2021/07/19 08:42:41;;;;;;;9.63;8.65;;;;;;;31.47;43.78;99646.70;1619484;87;21123;-81
2021/07/19 08:45:11;;;;;;;13.13;8.73;;;;;;;31.29;43.67;99642.54;1582046;89;21014;-81
2021/07/19 08:47:42;;;;;;;13.15;8.75;;;;;;;31.19;43.71;99669.41;1590545;88;21094;-80
2021/07/19 08:50:12;;;;;;;10.65;9.23;;;;;;;31.16;44.17;99700.36;1604508;88;21094;-81
2021/07/19 08:52:40;;;;;;;12.82;8.05;;;;;;;31.12;44.55;99725.59;1601196;88;21133;-80
2021/07/19 08:55:10;;;;;;;17.62;8.63;;;;;;;31.02;44.94;99735.64;1588807;88;21055;-79
2021/07/19 08:57:40;;;;;;;14.78;7.47;;;;;;;30.89;45.64;99743.61;1587166;88;21057;-83
2021/07/19 09:00:10;;;;;;;12.47;7.97;;;;;;;30.69;45.80;99752.95;1560202;90;21103;-81
2021/07/19 09:02:36;;;;;;;13.25;6.55;;;;;;;30.42;46.21;99722.14;1602657;88;21090;-84
2021/07/19 09:05:03;;;;;;;16.02;4.33;;;;;;;30.05;46.42;99745.26;1626140;88;21015;-73
2021/07/19 09:07:31;;;;;;;17.10;5.08;;;;;;;29.58;44.77;99751.41;1617948;88;21625;-76
2021/07/19 09:09:59;;;;;;;12.20;4.55;;;;;;;28.98;45.77;99757.30;1617502;87;21098;-76
2021/07/19 09:12:39;;;;;;;11.15;5.40;;;;;;;28.42;47.65;99794.16;1624645;86;21143;-77
2021/07/19 09:15:14;;;;;;;7.55;5.15;;;;;;;27.97;50.53;99819.84;1609773;88;21548;-76
2021/07/19 09:17:41;;;;;;;14.25;5.12;;;;;;;27.51;52.45;99832.03;1631897;88;21053;-76
2021/07/19 09:20:13;;;;;;;12.43;5.33;;;;;;;26.99;53.29;99849.71;1628735;86;21071;-77
2021/07/19 09:22:41;;;;;;;13.08;5.90;;;;;;;26.40;56.48;99857.02;1610671;88;21046;-78
2021/07/19 09:25:17;;;;;;;10.05;6.47;;;;;;;25.78;60.05;99868.32;1634538;86;21059;-78
2021/07/19 09:28:07;;;;;;;6.40;4.42;;;;;;;25.15;62.88;99835.56;1633895;86;21671;-77
2021/07/19 09:30:36;;;;;;;10.50;5.50;;;;;;;24.38;63.27;99854.36;1630301;86;21858;-77
2021/07/19 09:33:12;;;;;;;8.68;4.78;;;;;;;23.57;66.63;99860.95;1621494;86;21169;-76
2021/07/19 09:35:49;;;;;;;8.93;4.67;;;;;;;22.99;69.17;99865.73;1632668;86;21097;-77
2021/07/19 09:38:19;;;;;;;6.70;3.72;;;;;;;22.51;71.33;99857.59;1632568;86;21163;-75
2021/07/19 09:40:58;;;;;;;3.65;2.80;;;;;;;22.03;74.19;99847.70;1631834;86;21018;-76
2021/07/19 09:43:35;;;;;;;3.70;3.40;;;;;;;21.81;71.11;99843.95;1622106;88;21099;-77
2021/07/19 09:46:10;;;;;;;3.83;3.45;;;;;;;21.61;72.74;99854.87;1629641;86;21169;-75
2021/07/19 09:48:39;;;;;;;4.72;3.35;;;;;;;21.44;72.86;99858.67;1642522;86;20979;-78
2021/07/19 09:51:09;;;;;;;2.12;1.50;;;;;;;21.28;73.95;99856.46;1644166;86;20994;-76
2021/07/19 09:53:45;;;;;;;3.08;1.47;;;;;;;21.20;72.13;99865.14;1644718;86;21117;-77
2021/07/19 09:56:19;;;;;;;1.72;1.25;;;;;;;21.15;72.04;99878.16;1621841;86;21047;-78
2021/07/19 09:58:51;;;;;;;2.70;2.35;;;;;;;21.11;70.85;99877.59;1619421;87;21096;-77
2021/07/19 10:01:43;;;;;;;1.70;1.60;;;;;;;21.11;73.76;99867.56;1624632;86;21084;-77
2021/07/19 10:04:18;;;;;;;5.70;3.22;;;;;;;21.07;74.64;99852.12;1648171;85;21645;-77
2021/07/19 10:06:49;;;;;;;4.45;3.17;;;;;;;20.96;74.15;99844.00;1654295;85;21076;-77
2021/07/19 10:09:18;;;;;;;5.25;3.33;;;;;;;20.91;75.59;99848.05;1654329;85;21067;-77
2021/07/19 10:11:55;;;;;;;4.37;2.70;;;;;;;20.88;74.15;99855.35;1632321;85;21129;-77
2021/07/19 10:14:31;;;;;;;6.55;3.35;;;;;;;20.89;75.64;99874.59;1627784;86;21044;-78
2021/07/19 10:17:00;;;;;;;5.92;3.42;;;;;;;20.86;78.55;99894.09;1627931;86;21534;-76
2021/07/19 10:19:27;;;;;;;5.28;3.92;;;;;;;20.84;77.86;99907.08;1628396;87;20998;-76
2021/07/19 10:21:55;;;;;;;5.83;5.22;;;;;;;20.80;78.01;99907.35;1608407;88;21250;-76
2021/07/19 10:24:23;;;;;;;4.65;3.80;;;;;;;20.83;78.10;99893.25;1624397;87;21050;-77
2021/07/19 10:26:51;;;;;;;4.00;3.60;;;;;;;20.88;78.85;99881.63;1625640;87;21165;-76
2021/07/19 10:29:19;;;;;;;5.92;3.67;;;;;;;20.91;78.65;99868.37;1636159;86;21137;-76
2021/07/19 10:31:46;;;;;;;3.95;3.47;;;;;;;20.96;78.07;99849.42;1651890;86;21599;-77
2021/07/19 10:34:17;;;;;;;8.60;4.08;;;;;;;21.04;77.13;99835.88;1648992;86;21148;-76
2021/07/19 10:36:55;;;;;;;5.85;4.00;;;;;;;21.12;76.80;99823.14;1649864;86;21029;-76
2021/07/19 10:39:33;;;;;;;4.75;3.65;;;;;;;21.23;77.73;99827.19;1644973;86;21057;-77
2021/07/19 10:42:05;;;;;;;6.03;3.72;;;;;;;21.27;77.54;99828.30;1648485;87;21101;-77
2021/07/19 10:44:38;;;;;;;4.90;3.75;;;;;;;21.28;78.60;99830.71;1648354;86;21060;-77
2021/07/19 10:47:19;;;;;;;5.28;4.70;;;;;;;21.34;78.86;99849.98;1652621;86;21120;-77
2021/07/19 10:50:05;;;;;;;7.20;4.28;;;;;;;21.39;79.06;99860.80;1649677;86;21606;-77
2021/07/19 10:52:39;;;;;;;6.03;5.37;;;;;;;21.46;80.15;99874.67;1636587;86;21022;-77
2021/07/19 10:55:10;;;;;;;10.43;5.53;;;;;;;21.51;79.94;99894.98;1654937;85;21566;-78
2021/07/19 10:57:48;;;;;;;9.28;6.80;;;;;;;21.55;80.17;99919.95;1643548;87;21018;-80
2021/07/19 11:00:20;;;;;;;11.05;7.05;;;;;;;21.61;80.19;99970.13;1640974;86;21083;-78
2021/07/19 11:03:03;;;;;;;14.45;6.58;;;;;;;21.65;80.49;99992.91;1611898;87;21575;-77
2021/07/19 11:05:46;;;;;;;8.18;6.83;;;;;;;21.67;81.20;100017.30;1636960;87;21093;-77
2021/07/19 11:08:26;;;;;;;13.30;7.58;;;;;;;21.73;80.43;100018.92;1643551;86;21322;-77
2021/07/19 11:10:59;;;;;;;9.28;7.30;;;;;;;21.82;79.85;100024.64;1644034;87;21050;-77
2021/07/19 11:13:32;;;;;;;11.08;8.90;;;;;;;21.87;80.35;100040.93;1616835;87;21101;-77
2021/07/19 11:16:16;;;;;;;12.67;8.43;;;;;;;21.90;80.17;100030.87;1614382;87;21486;-77
2021/07/19 11:19:02;;;;;;;13.03;8.35;;;;;;;21.94;80.28;99992.64;1618489;87;21381;-77
2021/07/19 11:21:26;;;;;;;10.30;7.70;;;;;;;21.93;80.44;99948.94;1611434;88;21563;-76
2021/07/19 11:23:54;;;;;;;12.93;7.20;;;;;;;21.91;80.15;99931.31;1613953;87;21091;-77
2021/07/19 11:26:29;;;;;;;13.28;8.55;;;;;;;21.91;80.14;99899.56;1586495;89;21050;-76
2021/07/19 11:28:59;;;;;;;12.43;8.28;;;;;;;21.93;80.17;99860.76;1580540;89;21177;-77
2021/07/19 11:31:31;;;;;;;15.45;9.33;;;;;;;21.93;80.41;99836.89;1576811;89;21015;-75
2021/07/19 11:34:06;;;;;;;12.28;9.28;;;;;;;21.89;80.48;99810.05;1582160;89;21069;-78
2021/07/19 11:36:46;;;;;;;15.55;9.70;;;;;;;21.80;80.69;99804.92;1567289;89;21158;-76